Time;durP1;ratioP1;P1;durP2;ratioP2;P2;SDS_P1;SDS_P2;PMS_P1;PMS_P2;Temp;Humidity;BMP_temperature;BMP_pressure;BME280_temperature;BME280_humidity;BME280_pressure;Samples;Min_cycle;Max_cycle;Signal;HPM_P1;HPM_P2
2023/03/09 00:01:01;;;;;;;20.40;13.90;;;;;;;0.73;79.73;98110.33;102315;1256;1002921;-69
2023/03/09 00:03:28;;;;;;;25.00;15.30;;;;;;;0.71;79.79;98118.41;102505;1255;1002899;-68
2023/03/09 00:05:57;;;;;;;27.50;15.80;;;;;;;0.69;79.84;98119.80;103204;1257;139239;-69
2023/03/09 00:08:28;;;;;;;25.70;15.60;;;;;;;0.68;79.96;98120.52;103246;1254;108812;-68
2023/03/09 00:11:04;;;;;;;26.10;15.90;;;;;;;0.69;80.00;98122.57;102393;1256;1003608;-68
2023/03/09 00:13:31;;;;;;;28.00;17.80;;;;;;;0.68;80.20;98120.36;103482;1256;138572;-69
2023/03/09 00:16:20;;;;;;;30.90;18.00;;;;;;;0.67;80.21;98116.80;102504;1254;1003772;-68
2023/03/09 00:18:48;;;;;;;31.60;18.70;;;;;;;0.66;80.14;98117.50;103526;1254;138588;-68
2023/03/09 00:21:34;;;;;;;28.90;17.80;;;;;;;0.66;80.29;98120.42;103317;1254;108907;-68
2023/03/09 00:24:01;;;;;;;34.40;19.10;;;;;;;0.66;80.37;98119.73;102365;1254;1003836;-69
2023/03/09 00:26:32;;;;;;;28.20;18.10;;;;;;;0.65;80.36;98122.16;103275;1257;111535;-68
2023/03/09 00:29:05;;;;;;;25.80;16.90;;;;;;;0.63;80.43;98119.14;103241;1254;107601;-69
2023/03/09 00:31:33;;;;;;;26.80;16.70;;;;;;;0.62;80.40;98120.18;103187;1255;138257;-68
2023/03/09 00:34:02;;;;;;;27.70;16.10;;;;;;;0.62;80.64;98115.23;102506;1254;1003542;-69
2023/03/09 00:36:29;;;;;;;29.30;17.30;;;;;;;0.63;80.77;98111.63;102408;1254;1002682;-70
2023/03/09 00:38:58;;;;;;;26.10;16.70;;;;;;;0.65;80.84;98113.26;102567;1254;1003548;-68
2023/03/09 00:41:30;;;;;;;29.60;18.20;;;;;;;0.64;80.76;98117.23;103277;1254;107272;-68
2023/03/09 00:44:18;;;;;;;28.60;16.00;;;;;;;0.64;80.91;98115.52;102533;1254;1003251;-68
2023/03/09 00:46:45;;;;;;;27.20;16.80;;;;;;;0.64;80.96;98114.14;103233;1256;107035;-69
2023/03/09 00:49:15;;;;;;;26.90;16.80;;;;;;;0.63;80.82;98108.85;103344;1254;1002990;-69
2023/03/09 00:51:43;;;;;;;30.40;17.30;;;;;;;0.64;80.78;98103.53;103127;1260;112416;-69
2023/03/09 00:54:11;;;;;;;26.70;16.50;;;;;;;0.64;80.86;98095.34;103119;1256;138554;-69
2023/03/09 00:56:38;;;;;;;27.20;16.30;;;;;;;0.64;80.93;98087.82;103244;1254;97826;-69
2023/03/09 00:59:06;;;;;;;28.10;16.70;;;;;;;0.63;81.00;98085.95;103246;1254;108005;-69
2023/03/09 01:01:33;;;;;;;24.30;15.40;;;;;;;0.63;81.01;98084.92;103006;1254;138723;-69
2023/03/09 01:04:00;;;;;;;31.30;16.60;;;;;;;0.63;81.04;98082.39;102597;1256;1015923;-70
2023/03/09 01:06:28;;;;;;;27.10;15.70;;;;;;;0.62;80.98;98083.59;103033;1256;138611;-69
2023/03/09 01:08:56;;;;;;;26.10;16.30;;;;;;;0.60;81.13;98077.83;103237;1255;97676;-70
2023/03/09 01:11:24;;;;;;;26.40;16.80;;;;;;;0.58;81.07;98077.52;103307;1254;108096;-69
2023/03/09 01:13:53;;;;;;;24.90;16.50;;;;;;;0.57;81.12;98073.98;103073;1254;97900;-70
2023/03/09 01:16:20;;;;;;;30.00;17.00;;;;;;;0.58;81.30;98079.95;103238;1256;111399;-70
2023/03/09 01:18:47;;;;;;;27.20;17.90;;;;;;;0.57;81.33;98075.16;103180;1254;138485;-69
2023/03/09 01:21:15;;;;;;;24.50;16.30;;;;;;;0.58;81.37;98075.67;103163;1256;97737;-69
2023/03/09 01:23:43;;;;;;;29.60;17.80;;;;;;;0.56;81.38;98077.77;103143;1254;138809;-69
2023/03/09 01:26:13;;;;;;;29.20;17.70;;;;;;;0.57;81.44;98077.92;103278;1254;97765;-69
2023/03/09 01:28:41;;;;;;;31.70;18.30;;;;;;;0.56;81.35;98078.29;103249;1254;112139;-69
2023/03/09 01:31:16;;;;;;;27.80;18.10;;;;;;;0.55;81.36;98076.25;102921;1257;138266;-69
2023/03/09 01:33:44;;;;;;;30.30;18.80;;;;;;;0.56;81.45;98073.33;103318;1254;98290;-69
2023/03/09 01:36:17;;;;;;;29.70;18.90;;;;;;;0.57;81.59;98070.40;103165;1257;139262;-69
2023/03/09 01:38:46;;;;;;;31.30;18.00;;;;;;;0.58;81.55;98070.36;103278;1257;97825;-69
2023/03/09 01:41:15;;;;;;;30.80;18.80;;;;;;;0.57;81.47;98070.05;103348;1254;112827;-69
2023/03/09 01:43:44;;;;;;;29.40;18.50;;;;;;;0.54;81.48;98075.94;102379;1257;1002575;-70
2023/03/09 01:46:32;;;;;;;33.40;19.40;;;;;;;0.51;81.63;98075.13;103225;1254;97915;-69
2023/03/09 01:49:06;;;;;;;35.40;20.30;;;;;;;0.49;81.53;98075.05;103108;1257;138392;-69
2023/03/09 01:51:38;;;;;;;35.50;20.20;;;;;;;0.49;81.80;98077.09;103215;1257;97781;-70
2023/03/09 01:54:08;;;;;;;32.80;21.10;;;;;;;0.50;81.81;98075.52;103009;1254;138832;-69
2023/03/09 01:56:36;;;;;;;31.00;19.00;;;;;;;0.49;81.82;98071.09;103213;1254;108170;-70
2023/03/09 01:59:07;;;;;;;30.90;19.60;;;;;;;0.49;81.83;98077.93;102283;1260;1003225;-70
2023/03/09 02:01:36;;;;;;;30.70;19.80;;;;;;;0.50;81.87;98081.00;103169;1254;138578;-70
2023/03/09 02:04:22;;;;;;;28.70;18.70;;;;;;;0.48;81.80;98085.15;102426;1254;1003716;-70
2023/03/09 02:06:51;;;;;;;27.70;18.50;;;;;;;0.47;81.86;98080.73;103811;1254;139135;-70
2023/03/09 02:09:43;;;;;;;28.90;18.70;;;;;;;0.46;81.98;98078.02;103276;1256;105605;-69
2023/03/09 02:12:13;;;;;;;30.10;19.10;;;;;;;0.44;81.90;98077.21;103412;1255;138493;-69
2023/03/09 02:14:44;;;;;;;30.40;19.30;;;;;;;0.42;81.87;98074.22;103458;1254;107489;-68
2023/03/09 02:17:16;;;;;;;31.80;18.40;;;;;;;0.40;81.98;98076.15;102534;1257;1003613;-70
2023/03/09 02:19:55;;;;;;;33.40;19.20;;;;;;;0.39;82.13;98080.10;102310;1256;1002507;-70
2023/03/09 02:22:23;;;;;;;27.90;17.70;;;;;;;0.38;82.03;98080.48;103224;1254;107670;-68
2023/03/09 02:25:05;;;;;;;29.60;18.60;;;;;;;0.37;82.21;98079.13;102845;1260;138841;-68
2023/03/09 02:27:53;;;;;;;30.10;17.30;;;;;;;0.36;81.95;98077.10;103210;1255;108278;-72
2023/03/09 02:30:43;;;;;;;31.90;18.70;;;;;;;0.34;82.13;98079.70;103109;1254;138380;-68
2023/03/09 02:33:27;;;;;;;27.20;17.60;;;;;;;0.34;82.17;98081.41;101690;1254;1003641;-69
2023/03/09 02:35:53;;;;;;;;;;;;;;;0.34;82.33;98084.83;103243;1254;138984;-70
2023/03/09 02:38:25;;;;;;;28.40;18.00;;;;;;;0.33;82.28;98084.67;103223;1256;97722;-69
2023/03/09 02:41:15;;;;;;;33.80;20.30;;;;;;;0.35;82.42;98090.96;103281;1255;107204;-69
2023/03/09 02:43:48;;;;;;;34.10;20.30;;;;;;;0.35;82.31;98088.58;102962;1254;138265;-69
2023/03/09 02:46:16;;;;;;;34.60;21.50;;;;;;;0.35;82.50;98089.41;103171;1258;113995;-70
2023/03/09 02:48:44;;;;;;;34.20;21.70;;;;;;;0.33;82.35;98092.88;102952;1260;138589;-70
2023/03/09 02:52:01;;;;;;;39.20;22.70;;;;;;;0.32;82.34;98084.55;103077;1256;97682;-70
2023/03/09 02:54:29;;;;;;;36.80;23.00;;;;;;;0.32;82.39;98082.48;102995;1255;138272;-70
2023/03/09 02:57:07;;;;;;;37.00;22.10;;;;;;;0.30;82.47;98074.67;103272;1254;97865;-69
2023/03/09 02:59:44;;;;;;;40.40;23.20;;;;;;;0.30;82.49;98071.77;103110;1256;138257;-70
2023/03/09 03:02:32;;;;;;;35.70;20.90;;;;;;;0.28;82.56;98073.02;103129;1257;107709;-70
2023/03/09 03:05:00;;;;;;;38.80;23.40;;;;;;;0.27;82.58;98076.28;103224;1256;97785;-70
2023/03/09 03:07:27;;;;;;;37.00;21.20;;;;;;;0.24;82.69;98074.67;102166;1257;1002712;-70
2023/03/09 03:09:54;;;;;;;33.20;21.20;;;;;;;0.21;82.57;98071.34;103106;1254;97791;-70
2023/03/09 03:12:25;;;;;;;32.20;19.90;;;;;;;0.18;82.61;98068.31;103091;1260;138517;-70
2023/03/09 03:14:58;;;;;;;31.80;20.00;;;;;;;0.17;82.60;98069.19;102972;1261;108393;-70
2023/03/09 03:17:29;;;;;;;31.80;19.80;;;;;;;0.14;82.60;98068.58;103068;1260;138718;-70
2023/03/09 03:20:14;;;;;;;27.70;18.10;;;;;;;0.13;82.64;98079.56;103184;1254;107976;-70
2023/03/09 03:22:45;;;;;;;25.30;16.80;;;;;;;0.11;82.65;98087.46;103380;1260;97908;-70
2023/03/09 03:25:16;;;;;;;25.50;16.50;;;;;;;0.11;82.57;98087.14;99031;1260;5371982;-70
2023/03/09 03:27:46;;;;;;;24.80;16.20;;;;;;;0.11;82.58;98090.88;103118;1255;97720;-70
2023/03/09 03:30:21;;;;;;;23.60;16.10;;;;;;;0.11;82.45;98092.59;103038;1256;138414;-69
2023/03/09 03:33:08;;;;;;;26.30;16.20;;;;;;;0.11;82.52;98092.58;103265;1254;108316;-70
2023/03/09 03:35:39;;;;;;;24.70;16.30;;;;;;;0.13;82.52;98094.59;103029;1261;138531;-70
2023/03/09 03:38:06;;;;;;;24.50;15.80;;;;;;;0.13;82.52;98091.84;103105;1259;108409;-69
2023/03/09 03:40:54;;;;;;;24.20;15.60;;;;;;;0.14;82.52;98093.20;103154;1256;97792;-69
2023/03/09 03:43:25;;;;;;;22.10;14.70;;;;;;;0.13;82.29;98096.46;102995;1256;139853;-68
2023/03/09 03:45:56;;;;;;;23.50;13.90;;;;;;;0.13;82.40;98100.23;102272;1260;1003301;-69
2023/03/09 03:48:43;;;;;;;24.60;14.80;;;;;;;0.12;82.26;98101.64;103143;1256;138481;-68
2023/03/09 03:51:22;;;;;;;24.00;14.40;;;;;;;0.10;82.34;98109.18;103246;1256;107885;-69
2023/03/09 03:54:09;;;;;;;21.60;14.10;;;;;;;0.10;82.37;98115.52;103066;1254;138450;-70
2023/03/09 03:56:38;;;;;;;22.70;13.70;;;;;;;0.08;82.18;98119.69;103078;1256;111022;-69
2023/03/09 03:59:10;;;;;;;20.30;14.40;;;;;;;0.05;82.16;98117.70;103036;1256;109558;-69
2023/03/09 04:01:39;;;;;;;21.80;12.80;;;;;;;0.04;82.18;98118.07;103106;1260;138268;-69
2023/03/09 04:04:21;;;;;;;21.40;13.10;;;;;;;0.00;82.02;98120.70;103281;1255;108710;-69
2023/03/09 04:06:54;;;;;;;20.30;12.70;;;;;;;-0.02;82.02;98114.92;102222;1260;1003527;-69
2023/03/09 04:09:25;;;;;;;19.80;12.90;;;;;;;-0.02;82.05;98116.30;103258;1255;111281;-68
2023/03/09 04:11:56;;;;;;;22.80;12.50;;;;;;;-0.04;82.00;98117.70;102295;1254;1002821;-68
2023/03/09 04:14:23;;;;;;;19.30;12.30;;;;;;;-0.03;82.02;98121.11;103214;1256;97819;-68
2023/03/09 04:16:55;;;;;;;20.00;12.60;;;;;;;-0.02;82.04;98121.08;103085;1256;107714;-69
2023/03/09 04:19:27;;;;;;;19.70;12.80;;;;;;;-0.01;81.91;98122.27;103037;1254;138791;-69
2023/03/09 04:22:04;;;;;;;22.60;14.00;;;;;;;0.00;81.98;98117.81;103228;1258;111418;-69
2023/03/09 04:24:34;;;;;;;22.80;13.30;;;;;;;0.02;81.94;98111.81;102977;1256;139394;-70
2023/03/09 04:27:05;;;;;;;20.60;12.80;;;;;;;0.03;82.01;98112.45;101637;1255;1003723;-69
2023/03/09 04:29:46;;;;;;;20.00;13.10;;;;;;;0.03;81.96;98109.55;102984;1260;138748;-69
2023/03/09 04:32:15;;;;;;;19.50;12.70;;;;;;;0.04;82.10;98114.14;103057;1257;98087;-69
2023/03/09 04:34:52;;;;;;;20.60;12.60;;;;;;;0.04;81.93;98111.07;102459;1254;1002586;-69
2023/03/09 04:37:23;;;;;;;20.30;12.10;;;;;;;0.03;81.93;98113.83;103013;1256;138579;-68
2023/03/09 04:39:56;;;;;;;21.30;12.90;;;;;;;0.01;81.96;98114.55;103119;1256;98326;-68
2023/03/09 04:42:40;;;;;;;24.00;12.20;;;;;;;0.02;81.95;98121.88;103048;1251;138236;-69
2023/03/09 04:45:21;;;;;;;20.80;12.30;;;;;;;0.03;81.93;98127.66;104428;1256;95867;-69
2023/03/09 04:47:51;;;;;;;20.20;12.80;;;;;;;0.03;81.86;98130.20;102765;1256;138911;-69
2023/03/09 04:50:20;;;;;;;19.90;11.90;;;;;;;0.03;81.83;98132.09;103119;1256;107336;-69
2023/03/09 04:53:11;;;;;;;24.60;13.80;;;;;;;0.03;81.85;98131.59;103106;1256;97770;-69
2023/03/09 04:55:38;;;;;;;19.60;12.80;;;;;;;0.01;81.74;98129.92;102880;1257;138167;-69
2023/03/09 04:58:11;;;;;;;21.60;13.20;;;;;;;-0.01;81.77;98130.29;102944;1255;97826;-68
2023/03/09 05:00:49;;;;;;;23.00;13.90;;;;;;;-0.02;81.70;98129.09;102237;1260;1003134;-68
2023/03/09 05:03:19;;;;;;;24.00;13.30;;;;;;;-0.03;81.66;98123.16;102229;1255;1002729;-69
2023/03/09 05:05:49;;;;;;;25.40;14.10;;;;;;;-0.03;81.74;98119.74;103032;1256;139272;-69
2023/03/09 05:08:25;;;;;;;22.90;14.40;;;;;;;-0.03;81.82;98116.16;102136;1260;1003761;-69
2023/03/09 05:11:13;;;;;;;23.70;14.20;;;;;;;-0.04;81.89;98117.87;103104;1259;97937;-69
2023/03/09 05:13:43;;;;;;;23.20;14.80;;;;;;;-0.05;81.71;98112.63;103470;1255;138298;-69
2023/03/09 05:16:14;;;;;;;28.80;14.70;;;;;;;-0.08;81.64;98113.89;103059;1260;109316;-69
2023/03/09 05:18:43;;;;;;;22.30;15.20;;;;;;;-0.09;81.79;98120.06;101366;1256;1002974;-68
2023/03/09 05:21:25;;;;;;;24.30;15.50;;;;;;;-0.12;81.79;98117.91;102344;1256;1003663;-67
2023/03/09 05:23:53;;;;;;;27.10;16.00;;;;;;;-0.11;81.78;98124.91;102932;1256;139333;-67
2023/03/09 05:26:23;;;;;;;27.20;16.00;;;;;;;-0.12;81.77;98123.73;103191;1256;111242;-68
2023/03/09 05:29:11;;;;;;;25.70;16.00;;;;;;;-0.12;81.93;98124.40;103170;1255;110082;-68
2023/03/09 05:31:38;;;;;;;24.30;15.30;;;;;;;-0.12;81.84;98130.56;103066;1256;138531;-68
2023/03/09 05:34:06;;;;;;;24.90;15.90;;;;;;;-0.12;81.78;98139.96;101669;1256;1016624;-68
2023/03/09 05:36:34;;;;;;;25.80;16.30;;;;;;;-0.13;81.77;98140.83;102920;1256;138827;-68
2023/03/09 05:39:07;;;;;;;23.10;16.00;;;;;;;-0.15;81.85;98135.75;103219;1256;110328;-68
2023/03/09 05:41:38;;;;;;;24.80;15.50;;;;;;;-0.15;81.82;98136.78;102824;1256;138769;-69
2023/03/09 05:44:13;;;;;;;27.30;15.70;;;;;;;-0.17;81.83;98137.52;103176;1256;98118;-69
2023/03/09 05:46:41;;;;;;;28.10;17.40;;;;;;;-0.19;81.89;98132.23;103144;1255;108896;-68
2023/03/09 05:49:12;;;;;;;25.60;17.40;;;;;;;-0.20;81.87;98139.61;102948;1255;139215;-69
2023/03/09 05:51:39;;;;;;;28.00;17.10;;;;;;;-0.21;81.97;98141.52;103007;1255;111790;-68
2023/03/09 05:54:10;;;;;;;28.70;17.30;;;;;;;-0.24;82.03;98140.73;102926;1258;138574;-70
2023/03/09 05:56:40;;;;;;;31.10;19.40;;;;;;;-0.24;82.12;98143.48;102295;1260;1003385;-69
2023/03/09 05:59:27;;;;;;;29.70;18.20;;;;;;;-0.26;82.09;98136.00;103220;1256;107949;-70
2023/03/09 06:02:13;;;;;;;26.00;18.20;;;;;;;-0.26;82.11;98138.73;103194;1258;97782;-70
2023/03/09 06:04:42;;;;;;;29.40;18.20;;;;;;;-0.26;82.23;98138.89;103156;1256;111450;-71
2023/03/09 06:07:12;;;;;;;30.90;19.30;;;;;;;-0.25;82.25;98146.73;103069;1256;139183;-69
2023/03/09 06:09:43;;;;;;;27.90;18.10;;;;;;;-0.26;82.29;98148.12;102834;1256;97734;-70
2023/03/09 06:12:17;;;;;;;31.30;19.30;;;;;;;-0.27;82.28;98154.64;100761;1258;1015568;-70
2023/03/09 06:14:52;;;;;;;27.20;18.40;;;;;;;-0.27;82.12;98157.04;103196;1258;97781;-71
2023/03/09 06:17:21;;;;;;;31.10;18.70;;;;;;;-0.26;82.32;98161.78;103076;1255;111166;-69
2023/03/09 06:19:53;;;;;;;30.20;17.90;;;;;;;-0.27;82.18;98162.31;103064;1255;106214;-70
2023/03/09 06:22:40;;;;;;;30.50;18.30;;;;;;;-0.27;82.36;98162.33;103160;1256;99987;-69
2023/03/09 06:25:18;;;;;;;27.40;17.40;;;;;;;-0.28;82.22;98165.95;102826;1260;138551;-69
2023/03/09 06:27:50;;;;;;;25.70;17.30;;;;;;;-0.30;82.35;98168.55;103013;1260;97924;-68
2023/03/09 06:30:21;;;;;;;29.20;18.30;;;;;;;-0.31;82.26;98164.48;102942;1256;138656;-67
2023/03/09 06:32:52;;;;;;;27.80;17.50;;;;;;;-0.32;82.30;98164.65;103209;1255;108432;-70
2023/03/09 06:35:20;;;;;;;31.40;17.60;;;;;;;-0.29;82.51;98162.90;103048;1256;97801;-70
2023/03/09 06:37:48;;;;;;;28.00;17.30;;;;;;;-0.27;82.54;98166.42;102909;1256;138478;-70
2023/03/09 06:40:35;;;;;;;30.10;18.40;;;;;;;-0.21;82.57;98172.93;103201;1258;98295;-70
2023/03/09 06:43:06;;;;;;;24.50;16.30;;;;;;;-0.15;82.56;98170.25;102993;1256;139513;-69
2023/03/09 06:45:34;;;;;;;27.20;16.90;;;;;;;-0.10;82.50;98171.52;103014;1256;106750;-71
2023/03/09 06:48:12;;;;;;;25.10;17.10;;;;;;;-0.06;82.35;98169.52;103063;1259;139214;-71
2023/03/09 06:50:52;;;;;;;29.20;18.00;;;;;;;-0.01;82.43;98165.48;103163;1256;106892;-71
2023/03/09 06:53:22;;;;;;;29.00;17.20;;;;;;;0.05;82.33;98164.02;103196;1256;100458;-71
2023/03/09 06:55:52;;;;;;;27.80;17.80;;;;;;;0.11;82.36;98162.99;103260;1255;110969;-71
2023/03/09 06:58:22;;;;;;;27.70;16.50;;;;;;;0.15;82.11;98162.71;103067;1260;110799;-71
2023/03/09 07:00:50;;;;;;;26.90;16.70;;;;;;;0.16;82.06;98160.83;103043;1256;138564;-71
2023/03/09 07:03:21;;;;;;;25.50;15.90;;;;;;;0.18;81.95;98158.39;103206;1255;109081;-72
2023/03/09 07:05:49;;;;;;;26.90;16.40;;;;;;;0.20;81.81;98157.34;103064;1258;139014;-74
2023/03/09 07:08:17;;;;;;;27.00;17.30;;;;;;;0.20;81.76;98158.35;103208;1258;111477;-72
2023/03/09 07:10:44;;;;;;;29.90;16.50;;;;;;;0.21;81.73;98155.25;103135;1256;107144;-70
2023/03/09 07:13:22;;;;;;;25.20;17.10;;;;;;;0.24;81.64;98154.66;102902;1255;138410;-69
2023/03/09 07:15:49;;;;;;;26.70;16.90;;;;;;;0.25;81.44;98154.98;101481;1257;1003790;-69
2023/03/09 07:18:21;;;;;;;28.30;16.20;;;;;;;0.28;81.46;98160.19;102205;1259;1002689;-70
2023/03/09 07:20:51;;;;;;;25.00;16.50;;;;;;;0.29;81.14;98165.96;103468;1258;110832;-69
2023/03/09 07:23:18;;;;;;;25.00;16.60;;;;;;;0.34;81.23;98167.05;103111;1256;108467;-69
2023/03/09 07:25:45;;;;;;;29.10;17.20;;;;;;;0.37;80.93;98166.84;103089;1256;138266;-70
2023/03/09 07:28:12;;;;;;;25.10;17.20;;;;;;;0.37;80.66;98168.88;102334;1256;1002564;-71
2023/03/09 07:30:47;;;;;;;26.20;16.80;;;;;;;0.37;80.65;98165.45;103018;1255;138558;-70
2023/03/09 07:33:27;;;;;;;27.60;16.90;;;;;;;0.37;80.61;98164.44;102416;1256;1002916;-69
2023/03/09 07:35:55;;;;;;;28.60;16.20;;;;;;;0.36;80.33;98169.74;102249;1256;1003587;-70
2023/03/09 07:38:25;;;;;;;22.90;16.40;;;;;;;0.37;80.26;98172.64;102965;1258;97820;-71
2023/03/09 07:40:52;;;;;;;22.20;15.30;;;;;;;0.36;80.34;98173.17;103176;1255;109097;-70
2023/03/09 07:43:30;;;;;;;24.50;15.60;;;;;;;0.35;80.25;98175.23;102235;1258;1003526;-70
2023/03/09 07:46:08;;;;;;;26.90;17.10;;;;;;;0.36;80.52;98171.63;103076;1258;109957;-70
2023/03/09 07:48:38;;;;;;;22.80;14.80;;;;;;;0.37;80.28;98174.52;103058;1256;138338;-68
2023/03/09 07:51:07;;;;;;;21.10;14.20;;;;;;;0.34;79.90;98179.02;103198;1258;97692;-70
2023/03/09 07:53:35;;;;;;;20.90;13.70;;;;;;;0.30;79.88;98180.64;102374;1258;1003024;-70
2023/03/09 07:56:09;;;;;;;24.70;15.10;;;;;;;0.31;80.19;98184.04;102326;1256;1003023;-70
2023/03/09 07:58:40;;;;;;;22.30;14.70;;;;;;;0.31;80.07;98185.94;103023;1256;111349;-70
2023/03/09 08:01:16;;;;;;;24.10;14.60;;;;;;;0.28;80.12;98183.94;102891;1256;138458;-71
2023/03/09 08:03:53;;;;;;;20.30;13.40;;;;;;;0.28;79.98;98188.22;102286;1256;1003023;-70
2023/03/09 08:06:20;;;;;;;17.70;13.10;;;;;;;0.29;79.96;98186.84;102331;1256;1004104;-71
2023/03/09 08:08:48;;;;;;;21.40;14.00;;;;;;;0.29;79.96;98191.27;103047;1258;97673;-71
2023/03/09 08:11:16;;;;;;;24.70;14.50;;;;;;;0.31;80.13;98196.86;103183;1256;110240;-71
2023/03/09 08:13:53;;;;;;;21.20;14.30;;;;;;;0.36;80.14;98195.38;102975;1256;138323;-71
2023/03/09 08:16:30;;;;;;;22.00;13.30;;;;;;;0.41;80.08;98195.95;102360;1256;1002926;-70
2023/03/09 08:18:57;;;;;;;18.70;13.50;;;;;;;0.48;80.05;98195.60;102195;1258;1003102;-71
2023/03/09 08:21:25;;;;;;;17.10;12.40;;;;;;;0.55;79.87;98191.67;103060;1255;98023;-71
2023/03/09 08:23:55;;;;;;;18.30;12.40;;;;;;;0.60;79.81;98192.92;102275;1256;1003057;-71
2023/03/09 08:26:23;;;;;;;20.00;13.20;;;;;;;0.66;79.67;98196.70;102953;1256;109607;-71
2023/03/09 08:28:53;;;;;;;16.50;11.50;;;;;;;0.72;79.67;98197.06;102936;1258;97916;-71
2023/03/09 08:31:36;;;;;;;15.50;11.10;;;;;;;0.79;79.40;98192.45;103000;1257;138279;-71
2023/03/09 08:34:04;;;;;;;17.10;12.10;;;;;;;0.84;78.99;98195.38;103078;1255;97649;-72
2023/03/09 08:36:32;;;;;;;17.70;11.70;;;;;;;0.88;78.86;98196.30;102907;1256;138143;-71
2023/03/09 08:39:11;;;;;;;19.60;12.10;;;;;;;0.99;79.02;98194.65;102909;1258;108781;-71
2023/03/09 08:41:38;;;;;;;18.60;11.70;;;;;;;1.12;79.12;98195.48;102845;1256;138670;-70
2023/03/09 08:44:06;;;;;;;16.50;10.90;;;;;;;1.24;78.95;98197.05;103065;1256;107402;-71
2023/03/09 08:46:55;;;;;;;13.30;10.40;;;;;;;1.35;78.45;98193.48;103107;1259;97803;-70
2023/03/09 08:49:22;;;;;;;16.00;10.20;;;;;;;1.36;77.82;98187.11;103128;1256;138366;-71
2023/03/09 08:51:51;;;;;;;15.70;9.60;;;;;;;1.38;77.66;98181.09;102957;1256;109801;-71
2023/03/09 08:54:21;;;;;;;14.90;10.50;;;;;;;1.35;77.22;98181.17;102812;1256;138201;-70
2023/03/09 08:56:48;;;;;;;14.70;10.50;;;;;;;1.36;77.60;98181.48;103758;1255;107625;-71
2023/03/09 08:59:16;;;;;;;14.60;10.00;;;;;;;1.45;77.83;98183.61;103865;1256;98872;-71
2023/03/09 09:01:43;;;;;;;13.70;9.90;;;;;;;1.54;77.72;98177.03;103039;1258;138330;-70
2023/03/09 09:04:25;;;;;;;13.40;9.40;;;;;;;1.58;77.49;98176.04;103192;1256;106699;-70
2023/03/09 09:06:55;;;;;;;11.50;8.80;;;;;;;1.62;77.27;98177.64;103718;1255;139035;-72
2023/03/09 09:09:36;;;;;;;12.30;9.20;;;;;;;1.65;77.01;98180.66;103449;1256;108324;-73
2023/03/09 09:12:03;;;;;;;13.60;9.50;;;;;;;1.68;77.05;98180.23;103267;1256;138494;-71
2023/03/09 09:14:31;;;;;;;15.50;9.20;;;;;;;1.66;76.78;98178.72;103365;1256;111159;-72
2023/03/09 09:16:58;;;;;;;15.20;9.80;;;;;;;1.57;76.20;98185.67;103150;1258;107855;-71
2023/03/09 09:19:26;;;;;;;16.00;9.50;;;;;;;1.51;76.33;98187.23;103045;1255;138267;-72
2023/03/09 09:21:54;;;;;;;14.60;9.10;;;;;;;1.48;76.75;98187.48;103085;1258;108365;-72
2023/03/09 09:24:22;;;;;;;14.50;9.40;;;;;;;1.47;76.93;98191.79;103049;1256;138154;-72
2023/03/09 09:26:50;;;;;;;14.80;9.80;;;;;;;1.48;77.16;98192.45;103148;1256;110754;-71
2023/03/09 09:29:27;;;;;;;15.90;9.20;;;;;;;1.48;76.98;98198.80;103079;1256;106951;-72
2023/03/09 09:31:55;;;;;;;13.90;9.50;;;;;;;1.46;76.73;98198.50;103098;1256;97672;-71
2023/03/09 09:34:42;;;;;;;14.10;9.80;;;;;;;1.44;76.97;98197.70;103141;1256;107782;-72
2023/03/09 09:37:13;;;;;;;18.00;9.90;;;;;;;1.42;77.13;98200.63;102941;1256;138474;-70
2023/03/09 09:39:40;;;;;;;13.00;8.40;;;;;;;1.43;77.20;98203.71;103250;1255;111386;-69
2023/03/09 09:42:33;;;;;;;16.60;9.70;;;;;;;1.45;77.30;98212.58;102942;1260;138692;-69
2023/03/09 09:45:03;;;;;;;14.10;9.00;;;;;;;1.46;77.25;98221.62;103197;1259;97807;-70
2023/03/09 09:47:33;;;;;;;18.10;8.80;;;;;;;1.41;77.02;98218.14;103081;1256;108789;-71
2023/03/09 09:50:03;;;;;;;12.20;8.20;;;;;;;1.37;76.78;98217.93;103169;1256;97663;-70
2023/03/09 09:52:46;;;;;;;13.00;7.90;;;;;;;1.35;76.81;98219.86;103187;1256;111396;-70
2023/03/09 09:55:20;;;;;;;10.30;7.70;;;;;;;1.32;76.35;98223.88;102995;1258;138298;-70
2023/03/09 09:57:53;;;;;;;11.70;7.60;;;;;;;1.28;76.53;98221.95;102415;1258;1002713;-70
2023/03/09 10:00:25;;;;;;;12.00;7.90;;;;;;;1.30;76.83;98226.88;102990;1256;138285;-70
2023/03/09 10:03:06;;;;;;;10.40;7.90;;;;;;;1.31;76.92;98225.64;103069;1255;97803;-70
2023/03/09 10:05:43;;;;;;;15.40;8.70;;;;;;;1.32;76.84;98230.23;103120;1256;111340;-71
2023/03/09 10:08:23;;;;;;;12.70;8.20;;;;;;;1.35;76.79;98233.73;102299;1258;1003004;-72
2023/03/09 10:11:13;;;;;;;10.80;7.70;;;;;;;1.36;76.63;98237.30;103194;1258;98321;-78
2023/03/09 10:13:46;;;;;;;11.70;8.20;;;;;;;1.38;76.78;98239.13;103057;1256;138141;-77
2023/03/09 10:16:21;;;;;;;11.20;8.20;;;;;;;1.39;76.80;98243.38;103190;1258;97847;-72
2023/03/09 10:18:54;;;;;;;12.20;8.20;;;;;;;1.40;76.78;98242.83;103202;1256;138084;-69
2023/03/09 10:21:28;;;;;;;11.90;8.30;;;;;;;1.43;77.01;98240.53;102429;1258;1015409;-70
2023/03/09 10:24:02;;;;;;;13.10;8.20;;;;;;;1.49;77.13;98242.25;103028;1258;138519;-70
2023/03/09 10:26:42;;;;;;;11.90;7.60;;;;;;;1.56;77.03;98243.42;102874;1260;108601;-70
2023/03/09 10:29:19;;;;;;;11.40;7.50;;;;;;;1.65;76.61;98245.92;103504;1256;99642;-70
2023/03/09 10:31:53;;;;;;;9.90;6.80;;;;;;;1.74;76.75;98249.94;103010;1259;138089;-69
2023/03/09 10:34:24;;;;;;;12.50;7.40;;;;;;;1.82;76.46;98254.00;102915;1258;107355;-71
2023/03/09 10:37:01;;;;;;;14.60;7.70;;;;;;;1.91;76.34;98258.20;102932;1256;138131;-71
2023/03/09 10:39:33;;;;;;;12.60;7.20;;;;;;;1.92;75.69;98254.90;103089;1256;108890;-71
2023/03/09 10:42:17;;;;;;;12.40;7.20;;;;;;;1.87;75.38;98262.59;103000;1256;138499;-70
2023/03/09 10:44:51;;;;;;;10.80;7.50;;;;;;;1.81;75.67;98266.20;103052;1256;112470;-70
2023/03/09 10:47:19;;;;;;;10.70;7.60;;;;;;;1.79;76.02;98265.89;102228;1257;1003046;-71
2023/03/09 10:50:12;;;;;;;12.10;6.60;;;;;;;1.79;75.92;98260.91;102837;1258;138320;-71
2023/03/09 10:52:51;;;;;;;10.00;6.70;;;;;;;1.77;75.65;98259.95;102858;1256;106452;-71
2023/03/09 10:55:34;;;;;;;9.50;6.00;;;;;;;1.79;75.82;98261.61;102896;1256;138232;-71
2023/03/09 10:58:03;;;;;;;11.90;7.30;;;;;;;1.83;75.58;98266.84;102315;1256;1002942;-70
2023/03/09 11:00:55;;;;;;;8.20;5.20;;;;;;;1.85;75.57;98265.39;103047;1256;139373;-71
2023/03/09 11:03:38;;;;;;;8.10;5.10;;;;;;;1.87;74.24;98267.90;102973;1256;98309;-71
2023/03/09 11:06:22;;;;;;;6.00;4.60;;;;;;;1.83;73.42;98271.27;102863;1258;138038;-71
2023/03/09 11:09:01;;;;;;;8.00;5.00;;;;;;;1.74;73.66;98268.94;103089;1259;97770;-70
2023/03/09 11:11:43;;;;;;;8.90;5.20;;;;;;;1.71;73.74;98268.36;102885;1256;138799;-70
2023/03/09 11:14:24;;;;;;;6.20;4.70;;;;;;;1.69;73.54;98267.03;102395;1258;1002369;-69
2023/03/09 11:16:55;;;;;;;6.60;5.00;;;;;;;1.72;73.90;98264.39;102845;1256;1002872;-70
2023/03/09 11:19:23;;;;;;;8.40;4.70;;;;;;;1.73;73.84;98268.64;102216;1260;1002999;-71
2023/03/09 11:21:59;;;;;;;6.70;4.80;;;;;;;1.69;73.68;98270.45;103160;1256;97901;-71
2023/03/09 11:24:32;;;;;;;9.50;5.90;;;;;;;1.69;74.20;98267.71;103002;1256;138074;-70
2023/03/09 11:27:04;;;;;;;8.80;5.80;;;;;;;1.70;74.43;98263.41;103037;1258;106478;-69
2023/03/09 11:29:42;;;;;;;11.50;6.80;;;;;;;1.71;74.93;98270.73;103211;1256;97786;-70
2023/03/09 11:32:12;;;;;;;8.60;5.80;;;;;;;1.73;75.04;98269.98;102524;1256;1002336;-69
2023/03/09 11:34:43;;;;;;;9.20;6.00;;;;;;;1.73;74.72;98275.14;103164;1256;97612;-71
2023/03/09 11:37:20;;;;;;;11.50;6.10;;;;;;;1.74;74.80;98280.61;102985;1256;137906;-70